Terminal Aerodrome Forecast
Issued by NWS Grand Forks, ND

Home | Current Version | Previous Version | Graphics & Text | Print | Product List | Glossary On
Versions: 1 2 3 4 5 6 7 8 9 10 11 12 13 14 15
000
FTUS43 KFGF 212320
TAFFAR
TAF
KFAR 212320Z 2200/2224 21018KT P6SM BKN150
     FM220200 29009KT P6SM SCT200
     FM220800 26006KT P6SM FEW250
     FM221900 27012KT P6SM SCT200=

USA.gov is the U.S. government's official web portal to all federal, state and local government web resources and services.